KLM39F EHAM-EKCH
Flight info
| Callsign | KLM39F |
|---|---|
| Flight time | N/A |
| Altitude | 33000 |
| Route | ANDIK N873 JUIST DCT DOSUR P729 TUDLO |
| Aircraft | B738/M-SDE2E3FGHIRWXY/LB1 |
Departure
| Time | N/A |
|---|---|
| Airport | Amsterdam Airport Schiphol (EHAM) |
Arrival
| Time | 2026-05-04 19:00 |
|---|---|
| Airport | Copenhagen Kastrup Airport (EKCH) |
| Time | Latitude | Longitude | Altitude | Speed | Heading |
|---|---|---|---|---|---|
| 2026-05-04 18:31 | 54.70207 | 8.90634 | 32989 ft | 497 kts | 44° |
| 2026-05-04 18:31 | 54.74931 | 8.99282 | 33009 ft | 493 kts | 44° |
| 2026-05-04 18:32 | 54.79651 | 9.07923 | 32998 ft | 493 kts | 45° |
| 2026-05-04 18:32 | 54.83503 | 9.17774 | 32988 ft | 498 kts | 64° |
| 2026-05-04 18:33 | 54.86318 | 9.28773 | 32983 ft | 498 kts | 66° |
| 2026-05-04 18:33 | 54.89052 | 9.39719 | 32356 ft | 505 kts | 65° |
| 2026-05-04 18:33 | 54.90462 | 9.45291 | 31931 ft | 504 kts | 65° |
| 2026-05-04 18:34 | 54.91887 | 9.50877 | 31425 ft | 504 kts | 65° |
| 2026-05-04 18:34 | 54.93317 | 9.56458 | 30944 ft | 507 kts | 65° |
| 2026-05-04 18:34 | 54.94754 | 9.62064 | 30460 ft | 510 kts | 65° |
| 2026-05-04 18:34 | 54.96203 | 9.67719 | 29947 ft | 512 kts | 65° |
| 2026-05-04 18:35 | 54.97654 | 9.73402 | 29360 ft | 514 kts | 65° |
| 2026-05-04 18:35 | 54.99101 | 9.79084 | 28832 ft | 513 kts | 65° |
| 2026-05-04 18:35 | 55.00546 | 9.84779 | 28304 ft | 512 kts | 65° |
| 2026-05-04 18:35 | 55.01976 | 9.90434 | 27789 ft | 510 kts | 65° |
| 2026-05-04 18:36 | 55.03406 | 9.96101 | 27264 ft | 509 kts | 65° |
| 2026-05-04 18:36 | 55.04825 | 10.01738 | 26746 ft | 507 kts | 65° |
| 2026-05-04 18:36 | 55.06238 | 10.07368 | 26238 ft | 506 kts | 65° |
| 2026-05-04 18:36 | 55.07627 | 10.12917 | 25718 ft | 505 kts | 65° |
| 2026-05-04 18:37 | 55.09029 | 10.18529 | 25209 ft | 503 kts | 65° |
| 2026-05-04 18:37 | 55.10425 | 10.24134 | 24696 ft | 501 kts | 65° |
| 2026-05-04 18:37 | 55.11808 | 10.29697 | 24186 ft | 499 kts | 65° |
| 2026-05-04 18:37 | 55.13162 | 10.35163 | 23679 ft | 492 kts | 65° |
| 2026-05-04 18:38 | 55.14507 | 10.40606 | 23110 ft | 483 kts | 65° |
| 2026-05-04 18:38 | 55.15830 | 10.45971 | 22544 ft | 478 kts | 65° |
| 2026-05-04 18:38 | 55.17143 | 10.51307 | 22035 ft | 476 kts | 65° |
| 2026-05-04 18:38 | 55.18444 | 10.56605 | 21530 ft | 474 kts | 65° |
| 2026-05-04 18:39 | 55.19741 | 10.61899 | 21031 ft | 471 kts | 65° |
| 2026-05-04 18:39 | 55.21026 | 10.67161 | 20542 ft | 469 kts | 65° |
| 2026-05-04 18:39 | 55.22305 | 10.72408 | 20039 ft | 467 kts | 65° |
| 2026-05-04 18:39 | 55.23572 | 10.77619 | 19562 ft | 465 kts | 65° |
| 2026-05-04 18:40 | 55.24835 | 10.82825 | 19071 ft | 462 kts | 65° |
| 2026-05-04 18:40 | 55.26087 | 10.88003 | 18587 ft | 460 kts | 65° |
| 2026-05-04 18:40 | 55.27333 | 10.93163 | 18051 ft | 454 kts | 65° |
| 2026-05-04 18:40 | 55.28537 | 10.98169 | 17503 ft | 436 kts | 66° |
| 2026-05-04 18:41 | 55.29689 | 11.02969 | 17033 ft | 417 kts | 66° |
| 2026-05-04 18:41 | 55.30793 | 11.07581 | 16580 ft | 402 kts | 66° |
| 2026-05-04 18:41 | 55.31857 | 11.12028 | 16151 ft | 389 kts | 66° |
| 2026-05-04 18:41 | 55.32879 | 11.16306 | 15754 ft | 380 kts | 66° |
| 2026-05-04 18:42 | 55.33904 | 11.20600 | 15365 ft | 384 kts | 66° |
| 2026-05-04 18:42 | 55.34941 | 11.24955 | 14964 ft | 388 kts | 66° |
| 2026-05-04 18:42 | 55.35948 | 11.29195 | 14558 ft | 387 kts | 66° |
| 2026-05-04 18:42 | 55.36981 | 11.33554 | 14133 ft | 383 kts | 66° |
| 2026-05-04 18:43 | 55.38009 | 11.37901 | 13706 ft | 388 kts | 66° |
| 2026-05-04 18:43 | 55.39045 | 11.42294 | 13233 ft | 388 kts | 66° |
| 2026-05-04 18:43 | 55.40069 | 11.46647 | 12793 ft | 380 kts | 66° |
| 2026-05-04 18:43 | 55.41065 | 11.50882 | 12394 ft | 370 kts | 66° |
| 2026-05-04 18:44 | 55.42098 | 11.54950 | 12064 ft | 361 kts | 62° |
| 2026-05-04 18:44 | 55.42481 | 11.56275 | 12013 ft | 356 kts | 60° |
| 2026-05-04 18:44 | 55.44056 | 11.61386 | 11970 ft | 364 kts | 59° |
| 2026-05-04 18:44 | 55.45295 | 11.65311 | 11962 ft | 369 kts | 59° |
| 2026-05-04 18:45 | 55.46528 | 11.69244 | 11910 ft | 361 kts | 59° |
| 2026-05-04 18:45 | 55.47705 | 11.73047 | 11803 ft | 345 kts | 59° |
| 2026-05-04 18:45 | 55.48815 | 11.76668 | 11680 ft | 327 kts | 59° |
| 2026-05-04 18:45 | 55.49863 | 11.80108 | 11554 ft | 311 kts | 59° |
| 2026-05-04 18:46 | 55.50860 | 11.83392 | 11423 ft | 297 kts | 59° |
| 2026-05-04 18:46 | 55.51821 | 11.86566 | 11143 ft | 291 kts | 59° |
| 2026-05-04 18:46 | 55.52769 | 11.89697 | 10748 ft | 289 kts | 59° |
| 2026-05-04 18:46 | 55.53708 | 11.92806 | 10308 ft | 289 kts | 59° |
| 2026-05-04 18:47 | 55.54657 | 11.95952 | 9915 ft | 287 kts | 59° |
| 2026-05-04 18:47 | 55.55585 | 11.99035 | 9510 ft | 284 kts | 59° |
| 2026-05-04 18:47 | 55.56498 | 12.02076 | 9106 ft | 282 kts | 59° |
| 2026-05-04 18:47 | 55.57413 | 12.05126 | 8686 ft | 280 kts | 59° |
| 2026-05-04 18:48 | 55.58323 | 12.08161 | 8283 ft | 278 kts | 60° |
| 2026-05-04 18:48 | 55.59226 | 12.11181 | 7964 ft | 276 kts | 60° |
| 2026-05-04 18:48 | 55.60129 | 12.14201 | 7957 ft | 278 kts | 60° |
| 2026-05-04 18:48 | 55.61024 | 12.17202 | 7935 ft | 277 kts | 60° |
| 2026-05-04 18:49 | 55.61930 | 12.20242 | 7939 ft | 276 kts | 60° |
| 2026-05-04 18:49 | 55.62781 | 12.23102 | 7930 ft | 277 kts | 60° |
| 2026-05-04 18:49 | 55.63679 | 12.26121 | 7948 ft | 278 kts | 60° |
| 2026-05-04 18:49 | 55.64578 | 12.29152 | 7933 ft | 278 kts | 60° |
| 2026-05-04 18:50 | 55.65467 | 12.32150 | 7936 ft | 279 kts | 60° |
| 2026-05-04 18:50 | 55.66364 | 12.35179 | 7937 ft | 278 kts | 60° |
| 2026-05-04 18:50 | 55.67263 | 12.38220 | 7951 ft | 278 kts | 60° |
| 2026-05-04 18:50 | 55.68150 | 12.41224 | 7925 ft | 270 kts | 60° |
| 2026-05-04 18:51 | 55.69010 | 12.44141 | 7927 ft | 265 kts | 60° |
| 2026-05-04 18:51 | 55.69864 | 12.47039 | 7927 ft | 264 kts | 60° |
| 2026-05-04 18:51 | 55.70703 | 12.49891 | 7786 ft | 261 kts | 60° |
| 2026-05-04 18:51 | 55.71538 | 12.52757 | 7434 ft | 260 kts | 60° |
| 2026-05-04 18:52 | 55.72360 | 12.55629 | 7000 ft | 262 kts | 61° |
| 2026-05-04 18:52 | 55.73189 | 12.58479 | 6645 ft | 260 kts | 60° |
| 2026-05-04 18:52 | 55.74016 | 12.61306 | 6315 ft | 255 kts | 60° |
| 2026-05-04 18:52 | 55.74832 | 12.64092 | 5876 ft | 255 kts | 60° |
| 2026-05-04 18:53 | 55.75654 | 12.66893 | 5478 ft | 253 kts | 60° |
| 2026-05-04 18:53 | 55.76460 | 12.69640 | 5102 ft | 251 kts | 60° |
| 2026-05-04 18:53 | 55.77267 | 12.72387 | 4703 ft | 249 kts | 60° |
| 2026-05-04 18:53 | 55.78057 | 12.75077 | 4325 ft | 246 kts | 60° |
| 2026-05-04 18:54 | 55.78820 | 12.77693 | 4167 ft | 229 kts | 60° |
| 2026-05-04 18:54 | 55.79526 | 12.80126 | 4001 ft | 214 kts | 60° |
| 2026-05-04 18:54 | 55.80045 | 12.82565 | 3644 ft | 213 kts | 84° |
| 2026-05-04 18:54 | 55.79750 | 12.85106 | 3308 ft | 212 kts | 122° |
| 2026-05-04 18:55 | 55.78700 | 12.86816 | 3046 ft | 206 kts | 161° |
| 2026-05-04 18:55 | 55.76002 | 12.86912 | 2969 ft | 179 kts | 210° |
| 2026-05-04 18:55 | 55.75061 | 12.85713 | 2989 ft | 160 kts | 220° |
| 2026-05-04 18:56 | 55.74169 | 12.84652 | 2997 ft | 151 kts | 221° |
| 2026-05-04 18:56 | 55.73355 | 12.83483 | 2861 ft | 154 kts | 225° |
| 2026-05-04 18:56 | 55.72543 | 12.82243 | 2664 ft | 154 kts | 225° |
| 2026-05-04 18:56 | 55.71736 | 12.80999 | 2466 ft | 153 kts | 225° |
| 2026-05-04 18:57 | 55.70935 | 12.79761 | 2256 ft | 152 kts | 226° |
| 2026-05-04 18:57 | 55.70142 | 12.78533 | 2041 ft | 151 kts | 226° |
| 2026-05-04 18:57 | 55.69356 | 12.77316 | 1836 ft | 151 kts | 226° |
| 2026-05-04 18:57 | 55.68564 | 12.76089 | 1630 ft | 150 kts | 225° |
| 2026-05-04 18:58 | 55.67784 | 12.74883 | 1435 ft | 149 kts | 225° |
| 2026-05-04 18:58 | 55.67009 | 12.73683 | 1222 ft | 147 kts | 225° |
| 2026-05-04 18:58 | 55.66239 | 12.72488 | 1026 ft | 148 kts | 225° |
| 2026-05-04 18:58 | 55.65456 | 12.71277 | 818 ft | 148 kts | 225° |
| 2026-05-04 18:59 | 55.64687 | 12.70084 | 589 ft | 146 kts | 224° |
| 2026-05-04 18:59 | 55.63981 | 12.68991 | 418 ft | 141 kts | 225° |
| 2026-05-04 18:59 | 55.63206 | 12.67788 | 243 ft | 152 kts | 225° |
| 2026-05-04 18:59 | 55.62424 | 12.66581 | 54 ft | 150 kts | 224° |
| 2026-05-04 19:00 | 55.61683 | 12.65424 | 22 ft | 126 kts | 221° |
| 2026-05-04 19:00 | 55.61267 | 12.64714 | 24 ft | 24 kts | 259° |
| 2026-05-04 19:00 | 55.61222 | 12.64433 | 23 ft | 23 kts | 250° |
| 2026-05-04 19:00 | 55.61193 | 12.64182 | 24 ft | 18 kts | 291° |
| 2026-05-04 19:01 | 55.61292 | 12.64128 | 23 ft | 16 kts | 26° |
| 2026-05-04 19:01 | 55.61382 | 12.64227 | 26 ft | 15 kts | 33° |
| 2026-05-04 19:01 | 55.61464 | 12.64320 | 23 ft | 13 kts | 33° |
| 2026-05-04 19:01 | 55.61540 | 12.64409 | 25 ft | 13 kts | 33° |
| 2026-05-04 19:02 | 55.61610 | 12.64490 | 23 ft | 12 kts | 33° |
| 2026-05-04 19:02 | 55.61678 | 12.64561 | 23 ft | 11 kts | 18° |
| 2026-05-04 19:02 | 55.61749 | 12.64561 | 25 ft | 10 kts | 347° |
| 2026-05-04 19:02 | 55.61824 | 12.64534 | 25 ft | 16 kts | 349° |
| 2026-05-04 19:03 | 55.61897 | 12.64509 | 23 ft | 0 kts | 350° |
| 2026-05-04 19:04 | 55.61912 | 12.64505 | 24 ft | 5 kts | 350° |
| 2026-05-04 19:04 | 55.62015 | 12.64471 | 26 ft | 15 kts | 349° |
| 2026-05-04 19:04 | 55.62115 | 12.64437 | 22 ft | 15 kts | 349° |
| 2026-05-04 19:05 | 55.62217 | 12.64401 | 23 ft | 15 kts | 344° |
| 2026-05-04 19:05 | 55.62281 | 12.64285 | 21 ft | 13 kts | 302° |
| 2026-05-04 19:05 | 55.62335 | 12.64137 | 21 ft | 20 kts | 303° |
| 2026-05-04 19:05 | 55.62440 | 12.63865 | 22 ft | 28 kts | 313° |
| 2026-05-04 19:06 | 55.62568 | 12.63770 | 23 ft | 6 kts | 358° |
| 2026-05-04 19:06 | 55.62570 | 12.63770 | 23 ft | 0 kts | 358° |
| 2026-05-04 19:07 | 55.62572 | 12.63770 | 23 ft | 1 kts | 359° |
| 2026-05-04 19:07 | 55.62645 | 12.63806 | 23 ft | 16 kts | 30° |
| 2026-05-04 19:08 | 55.62664 | 12.63826 | 23 ft | 0 kts | 30° |
| 2026-05-04 19:08 | 55.62690 | 12.63856 | 25 ft | 22 kts | 33° |
| 2026-05-04 19:08 | 55.62791 | 12.63966 | 25 ft | 13 kts | 18° |
| 2026-05-04 19:08 | 55.62871 | 12.63996 | 23 ft | 0 kts | 12° |
| 2026-05-04 19:09 | 55.62873 | 12.63997 | 23 ft | 0 kts | 11° |
| 2026-05-04 19:09 | 55.62882 | 12.64000 | 23 ft | 0 kts | 12° |